createdAt,value
2017-10-14T00:00:50.662Z,14.38
2017-10-14T00:03:19.057Z,13.40
2017-10-14T00:05:46.670Z,13.73
2017-10-14T00:08:14.281Z,15.00
2017-10-14T00:10:41.892Z,14.55
2017-10-14T00:13:09.465Z,15.45
2017-10-14T00:15:37.858Z,16.27
2017-10-14T00:18:06.245Z,15.90
2017-10-14T00:20:34.619Z,15.60
2017-10-14T00:23:03.006Z,15.52
2017-10-14T00:25:31.383Z,14.68
2017-10-14T00:27:59.758Z,13.60
2017-10-14T00:30:28.131Z,14.25
2017-10-14T00:32:56.472Z,13.95
2017-10-14T00:35:24.086Z,13.75
2017-10-14T00:37:51.694Z,13.43
2017-10-14T00:40:19.266Z,13.90
2017-10-14T00:42:47.003Z,13.57
2017-10-14T00:45:14.610Z,14.35
2017-10-14T00:47:42.345Z,15.43
2017-10-14T00:50:09.961Z,15.30
2017-10-14T00:52:37.575Z,14.00
2017-10-14T00:55:05.154Z,14.48
2017-10-14T00:57:33.523Z,14.48
2017-10-14T01:00:01.150Z,13.48
2017-10-14T01:02:28.774Z,13.45
2017-10-14T01:04:57.156Z,14.57
2017-10-14T01:07:24.739Z,13.62
2017-10-14T01:09:52.350Z,12.80
2017-10-14T01:12:20.185Z,13.10
2017-10-14T01:14:47.847Z,14.20
2017-10-14T01:17:15.460Z,14.85
2017-10-14T01:19:43.106Z,14.35
2017-10-14T01:22:10.738Z,14.55
2017-10-14T01:24:38.326Z,13.77
2017-10-14T01:27:05.907Z,15.98
2017-10-14T01:29:33.482Z,13.43
2017-10-14T01:32:01.105Z,13.62
2017-10-14T01:34:28.696Z,14.70
2017-10-14T01:36:56.322Z,14.15
2017-10-14T01:39:24.056Z,14.55
2017-10-14T01:41:51.690Z,14.05
2017-10-14T01:44:19.277Z,15.60
2017-10-14T01:46:46.976Z,15.88
2017-10-14T01:49:14.572Z,15.73
2017-10-14T01:51:42.210Z,15.98
2017-10-14T01:54:10.563Z,17.17
2017-10-14T01:56:38.144Z,16.70
2017-10-14T01:59:05.778Z,14.77
2017-10-14T02:01:33.406Z,15.88
2017-10-14T02:04:00.982Z,15.48
2017-10-14T02:06:28.924Z,15.50
2017-10-14T02:08:56.499Z,15.88
2017-10-14T02:11:24.117Z,16.35
2017-10-14T02:13:51.694Z,15.93
2017-10-14T02:16:19.311Z,15.52
2017-10-14T02:18:46.931Z,17.73
2017-10-14T02:21:14.554Z,17.75
2017-10-14T02:23:42.173Z,15.90
2017-10-14T02:26:09.830Z,15.75
2017-10-14T02:28:37.449Z,16.20
2017-10-14T02:31:05.834Z,15.95
2017-10-14T02:33:34.215Z,16.42
2017-10-14T02:36:02.590Z,14.45
2017-10-14T02:38:30.966Z,15.60
2017-10-14T02:40:59.343Z,14.30
2017-10-14T02:43:27.727Z,15.80
2017-10-14T02:45:56.099Z,14.52
2017-10-14T02:48:24.474Z,17.30
2017-10-14T02:50:52.043Z,16.48
2017-10-14T02:53:19.654Z,16.00
2017-10-14T02:55:47.262Z,15.95
2017-10-14T02:58:14.872Z,15.18
2017-10-14T03:00:42.482Z,16.27
2017-10-14T03:03:10.098Z,15.75
2017-10-14T03:05:37.666Z,17.65
2017-10-14T03:08:05.322Z,16.20
2017-10-14T03:10:32.994Z,18.10
2017-10-14T03:13:00.603Z,16.12
2017-10-14T03:15:28.978Z,16.85
2017-10-14T03:17:57.356Z,16.15
2017-10-14T03:20:25.737Z,18.62
2017-10-14T03:22:54.086Z,17.42
2017-10-14T03:25:21.699Z,16.15
2017-10-14T03:27:49.268Z,16.42
2017-10-14T03:30:16.840Z,16.20
2017-10-14T03:32:44.450Z,16.62
2017-10-14T03:35:12.080Z,18.02
2017-10-14T03:37:39.703Z,16.40
2017-10-14T03:40:07.320Z,16.85
2017-10-14T03:42:34.926Z,16.98
2017-10-14T03:45:02.535Z,14.98
2017-10-14T03:47:30.146Z,17.90
2017-10-14T03:49:57.761Z,16.67
2017-10-14T03:52:25.371Z,14.57
2017-10-14T03:54:52.994Z,16.40
2017-10-14T03:57:20.663Z,16.20
2017-10-14T03:59:49.039Z,14.75
2017-10-14T04:02:17.417Z,14.10
2017-10-14T04:04:45.795Z,16.05
2017-10-14T04:07:14.175Z,15.18
2017-10-14T04:09:42.554Z,15.20
2017-10-14T04:12:10.929Z,15.43
2017-10-14T04:14:38.541Z,15.65
2017-10-14T04:17:06.153Z,15.23
2017-10-14T04:19:34.530Z,16.87
2017-10-14T04:22:02.139Z,14.90
2017-10-14T04:24:29.750Z,15.77
2017-10-14T04:26:57.318Z,14.40
2017-10-14T04:29:24.926Z,14.55
2017-10-14T04:31:52.538Z,12.30
2017-10-14T04:34:20.153Z,15.18
2017-10-14T04:36:47.725Z,16.52
2017-10-14T04:39:15.292Z,14.93
2017-10-14T04:41:42.925Z,14.25
2017-10-14T04:44:10.534Z,14.10
2017-10-14T04:46:38.141Z,15.70
2017-10-14T04:49:05.750Z,14.80
2017-10-14T04:51:33.360Z,15.00
2017-10-14T04:54:00.943Z,13.15
2017-10-14T04:56:28.557Z,13.18
2017-10-14T04:58:56.943Z,13.90
2017-10-14T05:01:24.563Z,14.00
2017-10-14T05:03:52.171Z,13.85
2017-10-14T05:06:19.781Z,12.27
2017-10-14T05:08:47.411Z,13.82
2017-10-14T05:11:15.025Z,13.25
2017-10-14T05:13:42.647Z,13.98
2017-10-14T05:16:10.257Z,13.85
2017-10-14T05:18:37.872Z,12.88
2017-10-14T05:21:05.487Z,13.30
2017-10-14T05:23:33.058Z,14.90
2017-10-14T05:26:00.674Z,14.30
2017-10-14T05:28:28.281Z,13.48
2017-10-14T05:30:55.971Z,16.12
2017-10-14T05:33:23.744Z,15.68
2017-10-14T05:35:51.354Z,17.23
2017-10-14T05:38:18.963Z,21.87
2017-10-14T05:40:46.586Z,20.70
2017-10-14T05:43:14.195Z,42.92
2017-10-14T05:45:41.767Z,25.88
2017-10-14T05:48:09.381Z,16.33
2017-10-14T05:50:36.994Z,17.08
2017-10-14T05:53:04.603Z,18.35
2017-10-14T05:55:32.215Z,17.67
2017-10-14T05:57:59.827Z,17.85
2017-10-14T06:00:27.398Z,17.55
2017-10-14T06:02:55.019Z,16.05
2017-10-14T06:05:22.646Z,16.35
2017-10-14T06:07:50.232Z,15.00
2017-10-14T06:10:17.859Z,15.10
2017-10-14T06:12:45.429Z,15.43
2017-10-14T06:15:13.042Z,14.87
2017-10-14T06:17:40.651Z,15.32
2017-10-14T06:20:08.318Z,13.10
2017-10-14T06:22:35.937Z,13.75
2017-10-14T06:25:03.546Z,13.18
2017-10-14T06:27:31.285Z,13.15
2017-10-14T06:29:58.941Z,14.20
2017-10-14T06:32:26.547Z,13.45
2017-10-14T06:34:54.170Z,13.15
2017-10-14T06:37:21.777Z,13.70
2017-10-14T06:39:49.387Z,13.45
2017-10-14T06:42:17.011Z,13.27
2017-10-14T06:44:44.634Z,14.07
2017-10-14T06:47:12.258Z,14.20
2017-10-14T06:49:39.836Z,12.43
2017-10-14T06:52:07.443Z,13.30
2017-10-14T06:54:35.056Z,14.00
2017-10-14T06:57:02.671Z,13.30
2017-10-14T06:59:30.299Z,13.18
2017-10-14T07:01:57.910Z,12.88
2017-10-14T07:04:25.554Z,15.15
2017-10-14T07:06:53.889Z,14.10
2017-10-14T07:09:21.497Z,14.45
2017-10-14T07:11:49.109Z,13.48
2017-10-14T07:14:16.718Z,13.90
2017-10-14T07:16:44.326Z,12.63
2017-10-14T07:19:11.897Z,11.90
2017-10-14T07:21:39.511Z,12.30
2017-10-14T07:24:07.120Z,13.65
2017-10-14T07:26:34.732Z,12.80
2017-10-14T07:29:02.525Z,13.38
2017-10-14T07:31:30.295Z,13.10
2017-10-14T07:33:57.864Z,12.60
2017-10-14T07:36:25.475Z,13.35
2017-10-14T07:38:53.083Z,13.20
2017-10-14T07:41:20.690Z,13.02
2017-10-14T07:43:48.307Z,12.80
2017-10-14T07:46:15.913Z,11.70
2017-10-14T07:48:43.523Z,11.88
2017-10-14T07:51:11.223Z,11.55
2017-10-14T07:53:38.831Z,10.85
2017-10-14T07:56:06.449Z,11.65
2017-10-14T07:58:34.097Z,11.18
2017-10-14T08:01:01.712Z,12.75
2017-10-14T08:03:29.320Z,11.25
2017-10-14T08:05:56.934Z,11.65
2017-10-14T08:08:24.554Z,11.10
2017-10-14T08:10:52.178Z,10.15
2017-10-14T08:13:19.806Z,10.40
2017-10-14T08:15:48.576Z,11.88
2017-10-14T08:18:16.975Z,9.88
2017-10-14T08:20:44.602Z,11.00
2017-10-14T08:23:12.231Z,11.52
2017-10-14T08:25:39.851Z,11.40
2017-10-14T08:28:07.463Z,9.52
2017-10-14T08:30:35.077Z,10.35
2017-10-14T08:33:02.666Z,9.20
2017-10-14T08:35:30.275Z,9.70
2017-10-14T08:37:57.895Z,10.10
2017-10-14T08:40:25.511Z,11.18
2017-10-14T08:42:53.126Z,10.40
2017-10-14T08:45:20.740Z,9.35
2017-10-14T08:47:48.363Z,10.18
2017-10-14T08:50:15.975Z,8.73
2017-10-14T08:52:43.550Z,9.07
2017-10-14T08:55:11.133Z,8.85
2017-10-14T08:57:38.706Z,9.43
2017-10-14T09:00:06.314Z,8.88
2017-10-14T09:02:33.949Z,8.82
2017-10-14T09:05:02.327Z,9.07
2017-10-14T09:07:29.905Z,9.32
2017-10-14T09:09:57.518Z,9.13
2017-10-14T09:12:25.142Z,8.95
2017-10-14T09:14:52.754Z,8.30
2017-10-14T09:17:20.373Z,7.85
2017-10-14T09:19:47.949Z,6.90
2017-10-14T09:22:15.696Z,6.65
2017-10-14T09:24:43.318Z,7.10
2017-10-14T09:27:10.937Z,6.35
2017-10-14T09:29:38.545Z,6.20
2017-10-14T09:32:06.174Z,7.07
2017-10-14T09:34:33.794Z,6.82
2017-10-14T09:37:01.418Z,7.18
2017-10-14T09:39:29.024Z,7.50
2017-10-14T09:41:56.642Z,6.53
2017-10-14T09:44:24.976Z,6.72
2017-10-14T09:46:52.582Z,7.05
2017-10-14T09:49:21.086Z,6.93
2017-10-14T09:51:48.692Z,6.90
2017-10-14T09:54:16.313Z,6.53
2017-10-14T09:56:43.878Z,6.57
2017-10-14T09:59:11.602Z,5.95
2017-10-14T10:01:39.359Z,6.85
2017-10-14T10:04:06.928Z,5.85
2017-10-14T10:06:34.594Z,5.78
2017-10-14T10:09:02.233Z,5.57
2017-10-14T10:11:29.881Z,6.45
2017-10-14T10:13:57.537Z,5.00
2017-10-14T10:16:25.142Z,6.10
2017-10-14T10:18:52.758Z,5.50
2017-10-14T10:21:20.337Z,5.20
2017-10-14T10:23:47.941Z,5.30
2017-10-14T10:26:15.543Z,4.75
2017-10-14T10:28:43.155Z,5.30
2017-10-14T10:31:10.763Z,5.47
2017-10-14T10:33:38.376Z,5.62
2017-10-14T10:36:06.037Z,6.70
2017-10-14T10:38:33.569Z,6.60
2017-10-14T10:41:01.183Z,6.72
2017-10-14T10:43:28.753Z,8.05
2017-10-14T10:45:56.371Z,8.20
2017-10-14T10:48:24.753Z,9.00
2017-10-14T10:50:53.156Z,9.57
2017-10-14T10:53:20.728Z,9.65
2017-10-14T10:55:48.339Z,8.77
2017-10-14T10:58:15.954Z,7.93
2017-10-14T11:00:43.574Z,10.30
2017-10-14T11:03:11.956Z,9.25
2017-10-14T11:05:40.338Z,8.88
2017-10-14T11:08:08.671Z,8.63
2017-10-14T11:10:36.278Z,8.73
2017-10-14T11:13:04.654Z,10.45
2017-10-14T11:15:32.319Z,8.50
2017-10-14T11:18:00.690Z,9.43
2017-10-14T11:20:29.069Z,9.13
2017-10-14T11:22:56.641Z,8.68
2017-10-14T11:25:24.252Z,8.02
2017-10-14T11:27:51.868Z,10.10
2017-10-14T11:30:19.478Z,10.02
2017-10-14T11:32:47.093Z,11.05
2017-10-14T11:35:14.734Z,13.50
2017-10-14T11:37:43.314Z,10.95
2017-10-14T11:40:10.947Z,11.60
2017-10-14T11:42:38.562Z,10.25
2017-10-14T11:45:06.172Z,11.00
2017-10-14T11:47:33.747Z,11.77
2017-10-14T11:50:01.426Z,11.68
2017-10-14T11:52:29.050Z,12.02
2017-10-14T11:54:56.658Z,11.50
2017-10-14T11:57:24.273Z,11.88
2017-10-14T11:59:51.880Z,11.85
2017-10-14T12:02:19.509Z,11.63
2017-10-14T12:04:47.117Z,11.98
2017-10-14T12:07:14.732Z,11.25
2017-10-14T12:09:42.351Z,10.43
2017-10-14T12:12:09.966Z,10.52
2017-10-14T12:14:37.574Z,10.48
2017-10-14T12:17:05.182Z,10.63
2017-10-14T12:19:33.021Z,11.35
2017-10-14T12:22:00.626Z,12.07
2017-10-14T12:24:28.241Z,11.10
2017-10-14T12:26:55.945Z,10.90
2017-10-14T12:29:23.563Z,10.55
2017-10-14T12:31:51.170Z,10.10
2017-10-14T12:34:18.934Z,10.75
2017-10-14T12:36:46.543Z,11.30
2017-10-14T12:39:14.155Z,9.88
2017-10-14T12:41:41.774Z,9.95
2017-10-14T12:44:09.390Z,9.35
2017-10-14T12:46:37.816Z,9.27
2017-10-14T12:49:05.430Z,9.30
2017-10-14T12:51:33.157Z,9.07
2017-10-14T12:54:00.894Z,9.05
2017-10-14T12:56:28.594Z,8.90
2017-10-14T12:58:56.208Z,9.00
2017-10-14T13:01:23.832Z,9.05
2017-10-14T13:03:51.443Z,7.85
2017-10-14T13:06:19.364Z,7.90
2017-10-14T13:08:46.970Z,7.80
2017-10-14T13:11:14.862Z,7.93
2017-10-14T13:13:42.511Z,7.43
2017-10-14T13:16:10.119Z,7.68
2017-10-14T13:18:37.837Z,7.68
2017-10-14T13:21:06.434Z,7.43
2017-10-14T13:23:33.996Z,6.82
2017-10-14T13:26:01.644Z,6.72
2017-10-14T13:28:29.395Z,6.87
2017-10-14T13:30:56.968Z,6.90
2017-10-14T13:33:24.574Z,7.28
2017-10-14T13:35:52.188Z,7.65
2017-10-14T13:38:19.796Z,7.32
2017-10-14T13:40:47.430Z,7.12
2017-10-14T13:43:15.088Z,6.80
2017-10-14T13:45:42.707Z,6.72
2017-10-14T13:48:10.326Z,7.55
2017-10-14T13:50:37.934Z,5.97
2017-10-14T13:53:05.552Z,6.90
2017-10-14T13:55:33.163Z,6.28
2017-10-14T13:58:00.772Z,7.10
2017-10-14T14:00:28.384Z,6.78
2017-10-14T14:02:58.155Z,7.65
2017-10-14T14:05:26.631Z,7.20
2017-10-14T14:07:54.296Z,8.18
2017-10-14T14:10:21.874Z,6.20
2017-10-14T14:12:49.488Z,6.45
2017-10-14T14:15:17.098Z,5.53
2017-10-14T14:17:44.708Z,5.40
2017-10-14T14:20:12.315Z,5.68
2017-10-14T14:22:39.919Z,5.07
2017-10-14T14:25:07.561Z,6.37
2017-10-14T14:27:35.212Z,5.72
2017-10-14T14:30:02.790Z,5.12
2017-10-14T14:32:30.407Z,5.18
2017-10-14T14:34:58.026Z,4.22
2017-10-14T14:37:25.595Z,5.12
2017-10-14T14:39:53.165Z,4.97
2017-10-14T14:42:20.772Z,4.43
2017-10-14T14:44:48.396Z,4.85
2017-10-14T14:47:16.008Z,4.60
2017-10-14T14:49:43.576Z,4.40
2017-10-14T14:52:11.264Z,4.45
2017-10-14T14:54:38.868Z,4.00
2017-10-14T14:57:06.521Z,4.40
2017-10-14T14:59:34.895Z,3.40
2017-10-14T15:02:02.511Z,3.40
2017-10-14T15:04:30.115Z,3.50
2017-10-14T15:06:57.731Z,3.80
2017-10-14T15:09:25.339Z,10.38
2017-10-14T15:11:52.942Z,5.75
2017-10-14T15:14:27.768Z,3.42
2017-10-14T15:16:56.118Z,4.05
2017-10-14T15:19:27.422Z,3.65
2017-10-14T15:21:55.021Z,3.58
2017-10-14T15:24:22.636Z,2.70
2017-10-14T15:26:50.250Z,3.75
2017-10-14T15:29:17.858Z,3.60
2017-10-14T15:31:45.478Z,3.42
2017-10-14T15:34:13.100Z,3.03
2017-10-14T15:36:41.602Z,3.60
2017-10-14T15:39:09.557Z,6.93
2017-10-14T15:41:37.171Z,3.97
2017-10-14T15:44:04.750Z,4.47
2017-10-14T15:46:32.354Z,3.50
2017-10-14T15:48:59.963Z,3.97
2017-10-14T15:51:27.568Z,3.87
2017-10-14T15:53:55.238Z,3.70
2017-10-14T15:56:22.858Z,5.10
2017-10-14T15:58:50.468Z,4.95
2017-10-14T16:01:18.850Z,5.32
2017-10-14T16:03:46.479Z,5.53
2017-10-14T16:06:14.124Z,5.60
2017-10-14T16:08:41.729Z,8.88
2017-10-14T16:11:09.301Z,5.65
2017-10-14T16:13:37.639Z,4.70
2017-10-14T16:16:05.358Z,6.50
2017-10-14T16:18:32.932Z,8.52
2017-10-14T16:21:00.506Z,8.88
2017-10-14T16:23:28.169Z,10.32
2017-10-14T16:25:55.780Z,9.35
2017-10-14T16:28:23.409Z,9.40
2017-10-14T16:30:51.041Z,9.10
2017-10-14T16:33:18.660Z,8.95
2017-10-14T16:35:47.038Z,9.65
2017-10-14T16:38:14.654Z,9.25
2017-10-14T16:40:42.264Z,7.70
2017-10-14T16:43:09.837Z,8.68
2017-10-14T16:45:38.211Z,9.32
2017-10-14T16:48:05.874Z,9.20
2017-10-14T16:50:33.900Z,9.45
2017-10-14T16:53:01.535Z,8.55
2017-10-14T16:55:29.156Z,7.82
2017-10-14T16:57:56.770Z,8.95
2017-10-14T17:00:24.396Z,8.13
2017-10-14T17:02:52.201Z,7.68
2017-10-14T17:05:19.809Z,8.35
2017-10-14T17:07:48.184Z,7.93
2017-10-14T17:10:16.084Z,7.65
2017-10-14T17:12:43.715Z,7.55
2017-10-14T17:15:12.086Z,7.50
2017-10-14T17:17:39.696Z,7.80
2017-10-14T17:20:07.345Z,7.22
2017-10-14T17:22:34.966Z,8.10
2017-10-14T17:25:02.579Z,8.70
2017-10-14T17:27:30.192Z,10.02
2017-10-14T17:29:57.764Z,10.63
2017-10-14T17:32:26.206Z,14.40
2017-10-14T17:34:53.854Z,17.17
2017-10-14T17:37:21.431Z,27.52
2017-10-14T17:39:49.050Z,27.83
2017-10-14T17:42:16.671Z,24.98
2017-10-14T17:44:44.341Z,24.87
2017-10-14T17:47:11.968Z,29.02
2017-10-14T17:49:39.588Z,28.67
2017-10-14T17:52:07.212Z,29.52
2017-10-14T17:54:34.838Z,26.70
2017-10-14T17:57:02.451Z,25.92
2017-10-14T17:59:30.259Z,27.65
2017-10-14T18:01:57.874Z,27.90
2017-10-14T18:04:25.487Z,27.70
2017-10-14T18:06:53.101Z,27.52
2017-10-14T18:09:20.764Z,25.70
2017-10-14T18:11:49.144Z,25.10
2017-10-14T18:14:17.523Z,26.83
2017-10-14T18:16:45.912Z,26.55
2017-10-14T18:19:14.249Z,26.52
2017-10-14T18:21:41.825Z,26.02
2017-10-14T18:24:09.435Z,39.47
2017-10-14T18:26:37.076Z,66.45
2017-10-14T18:29:04.699Z,76.82
2017-10-14T18:31:32.358Z,56.15
2017-10-14T18:33:59.966Z,47.13
2017-10-14T18:36:27.574Z,36.53
2017-10-14T18:38:55.183Z,32.50
2017-10-14T18:41:22.852Z,32.42
2017-10-14T18:43:51.270Z,30.80
2017-10-14T18:46:19.094Z,30.45
2017-10-14T18:48:46.672Z,34.05
2017-10-14T18:51:14.295Z,31.83
2017-10-14T18:53:42.722Z,31.10
2017-10-14T18:56:10.350Z,29.45
2017-10-14T18:58:37.966Z,31.30
2017-10-14T19:01:05.584Z,30.00
2017-10-14T19:03:33.217Z,27.87
2017-10-14T19:06:00.899Z,27.33
2017-10-14T19:08:29.327Z,26.27
2017-10-14T19:10:57.023Z,28.73
2017-10-14T19:13:24.682Z,29.92
2017-10-14T19:15:52.307Z,30.80
2017-10-14T19:18:20.015Z,31.70
2017-10-14T19:20:48.437Z,33.83
2017-10-14T19:23:16.122Z,28.12
2017-10-14T19:25:43.726Z,28.73
2017-10-14T19:28:11.358Z,36.05
2017-10-14T19:30:38.979Z,41.22
2017-10-14T19:33:06.596Z,41.72
2017-10-14T19:35:34.225Z,33.78
2017-10-14T19:38:01.799Z,30.25
2017-10-14T19:40:29.456Z,25.90
2017-10-14T19:42:57.089Z,24.35
2017-10-14T19:45:24.712Z,22.92
2017-10-14T19:47:52.340Z,24.73
2017-10-14T19:50:19.962Z,21.30
2017-10-14T19:52:47.548Z,21.85
2017-10-14T19:55:15.162Z,18.05
2017-10-14T19:57:42.807Z,19.20
2017-10-14T20:00:10.391Z,20.58
2017-10-14T20:02:38.026Z,19.17
2017-10-14T20:05:05.748Z,19.80
2017-10-14T20:07:33.360Z,17.45
2017-10-14T20:10:00.982Z,20.23
2017-10-14T20:12:28.599Z,19.33
2017-10-14T20:14:56.231Z,21.30
2017-10-14T20:17:23.867Z,19.80
2017-10-14T20:19:51.564Z,17.70
2017-10-14T20:22:19.178Z,18.12
2017-10-14T20:24:46.893Z,18.27
2017-10-14T20:27:15.278Z,16.45
2017-10-14T20:29:43.684Z,17.95
2017-10-14T20:32:11.295Z,17.10
2017-10-14T20:34:38.967Z,17.50
2017-10-14T20:37:06.580Z,16.73
2017-10-14T20:39:34.395Z,15.07
2017-10-14T20:42:01.971Z,15.02
2017-10-14T20:44:29.605Z,14.52
2017-10-14T20:46:57.290Z,13.35
2017-10-14T20:49:24.930Z,13.70
2017-10-14T20:51:52.559Z,13.43
2017-10-14T20:54:20.175Z,12.10
2017-10-14T20:56:47.765Z,12.18
2017-10-14T20:59:15.378Z,11.12
2017-10-14T21:01:43.006Z,10.52
2017-10-14T21:04:10.628Z,11.85
2017-10-14T21:06:38.244Z,11.63
2017-10-14T21:09:05.868Z,11.38
2017-10-14T21:11:33.486Z,10.93
2017-10-14T21:14:01.060Z,11.95
2017-10-14T21:16:28.779Z,39.05
2017-10-14T21:18:56.358Z,34.75
2017-10-14T21:21:24.027Z,23.75
2017-10-14T21:23:51.643Z,18.60
2017-10-14T21:26:19.402Z,16.35
2017-10-14T21:28:47.028Z,14.63
2017-10-14T21:31:15.419Z,15.68
2017-10-14T21:33:43.035Z,14.57
2017-10-14T21:36:11.431Z,13.93
2017-10-14T21:38:39.063Z,12.52
2017-10-14T21:41:06.673Z,12.00
2017-10-14T21:43:34.283Z,12.27
2017-10-14T21:46:01.870Z,12.35
2017-10-14T21:48:29.489Z,11.52
2017-10-14T21:50:57.100Z,10.30
2017-10-14T21:53:24.746Z,10.95
2017-10-14T21:55:52.319Z,10.00
2017-10-14T21:58:19.889Z,11.18
2017-10-14T22:00:47.511Z,14.25
2017-10-14T22:03:15.180Z,12.40
2017-10-14T22:05:43.554Z,11.48
2017-10-14T22:08:11.895Z,10.80
2017-10-14T22:10:39.520Z,10.73
2017-10-14T22:13:07.137Z,10.15
2017-10-14T22:15:34.759Z,11.18
2017-10-14T22:18:02.380Z,9.57
2017-10-14T22:20:30.766Z,11.00
2017-10-14T22:22:59.147Z,10.82
2017-10-14T22:25:27.531Z,10.50
2017-10-14T22:27:55.912Z,10.98
2017-10-14T22:30:24.286Z,10.68
2017-10-14T22:32:52.630Z,10.95
2017-10-14T22:35:20.252Z,10.18
2017-10-14T22:37:47.867Z,9.68
2017-10-14T22:40:15.472Z,9.70
2017-10-14T22:42:43.079Z,9.70
2017-10-14T22:45:10.691Z,8.88
2017-10-14T22:47:38.305Z,9.80
2017-10-14T22:50:05.916Z,9.63
2017-10-14T22:52:33.539Z,9.15
2017-10-14T22:55:01.167Z,10.20
2017-10-14T22:57:28.798Z,9.70
2017-10-14T22:59:56.407Z,9.55
2017-10-14T23:02:23.981Z,11.40
2017-10-14T23:04:51.590Z,10.95
2017-10-14T23:07:19.199Z,11.07
2017-10-14T23:09:46.779Z,10.82
2017-10-14T23:12:14.392Z,11.35
2017-10-14T23:14:42.009Z,12.98
2017-10-14T23:17:09.622Z,13.18
2017-10-14T23:19:37.243Z,11.00
2017-10-14T23:22:04.855Z,9.73
2017-10-14T23:24:32.463Z,9.45
2017-10-14T23:27:00.078Z,10.05
2017-10-14T23:29:27.686Z,8.75
2017-10-14T23:31:55.351Z,8.80
2017-10-14T23:34:22.957Z,8.93
2017-10-14T23:36:50.574Z,10.00
2017-10-14T23:39:18.187Z,10.13
2017-10-14T23:41:45.802Z,9.30
2017-10-14T23:44:13.415Z,8.75
2017-10-14T23:46:41.028Z,9.00
2017-10-14T23:49:08.642Z,8.85
2017-10-14T23:51:36.251Z,8.50
2017-10-14T23:54:03.863Z,7.35
2017-10-14T23:56:31.472Z,7.90
2017-10-14T23:58:59.083Z,8.40
